Frankfort, MI (49635)

11:12 PM EST on December 27, 2014 (GMT -0500)
Crystal Lake Pinecrest | Change Station
CLOSE
Current Station
Personal Weather Station
Location: Beulah, MI
Elevation: 607 ft
Nearby Weather Stations
Active Advisory: Special Statement

Elev 607 ft 44.66 °N, 86.14 °W | Updated 45 seconds ago

Overcast
Overcast
33.3 °F
Feels Like 33 °F
N
0.0
Wind Variable Wind from NNW
Gusts 1.0 mph

Today
High -- | Low -- °F
--% Chance of Precip.
Yesterday
High -- | Low -- °F
Precip. -- in
8:21 AM 5:11 PM
Waxing Crescent, 43% visible
Pressure 29.98 in
Visibility 10.0 miles
Clouds Overcast 3800 ft
Windchill 33 °F
Dew Point 32 °F
Humidity 94%
Rainfall 0.25 in
Snow Depth Not available.
UV 0 out of 12
Pollen .10 out of 12
Air Quality Not available.
Flu Activity Not available.
METAR KFKS 280354Z AUTO 32006KT 10SM OVC038 01/00 A2998 RMK AO2 T00101005

More Conditions Fewer Conditions

Pressure 29.98 in
Visibility 10.0 miles
Clouds Overcast 3800 ft
Windchill 33 °F
Dew Point 32 °F
Humidity 94%
Rainfall 0.25 in
Snow Depth Not available.
UV 0 out of 12
Pollen .10 out of 12
Air Quality Not available.
Flu Activity Not available.
METAR KFKS 280354Z AUTO 32006KT 10SM OVC038 01/00 A2998 RMK AO2 T00101005

More Conditions Fewer Conditions

Nowcast | as of 11:00 PM EST on December 27, 2014

At 12 am...mostly cloudy. Scattered flurries. Temperature 35. West winds 12 mph. At 2 am...partly cloudy. Scattered flurries. Temperature 32. West winds 14 mph. At 4 am...partly cloudy. Scattered flurries. Temperature 29. West winds 13 mph. At 6 am...partly cloudy. Scattered flurries. Temperature 27. West winds 13 mph.

×

10-Day Weather Forecast

Almanac

Astronomy

Dec. 27, 2014 Rise Set
Actual Time
Civil Twilight
Nautical Twilight
Astronomical Twilight
Moon
Length of Visible Light
Length of Day
Tomorrow will be .
, % of the Moon is Illuminated

Today's Extremes

State Highs State Lows

Community

WunderPhotos

Upload Photos

1,781,187 photos uploaded!

WunderBlogs® & News

Nearby

Air Quality

  Air Quality AQ Index Pollutant
Not available.

Snow Depth

Station Depth Elevation

Earthquake Activity

City Distance Mag. Time & Date
Minimum magnitude displayed is 2.5.

Coastal Water Temperatures

Place Temperature

Nearby Weather Stations